Pensacola, FL

5:29 PM CDT on October 23, 2014 (GMT -0500)
Pensacola Naval Air Station | Change Station
CLOSE
Current Station
Airport
Location: Pensacola NAS,
Elevation: 30 ft
Nearby Weather Stations

Elev 30 ft 30.36 °N, 87.32 °W | Updated 33 minutes ago

Mostly Cloudy
Mostly Cloudy
71 °F
Feels Like 71 °F
N
5
Wind Variable Wind from SSW

Today
High -- | Low -- °F
--% Chance of Precip.
Yesterday
High -- | Low -- °F
Precip. -- in
6:56 AM 6:09 PM
New Moon, 0% visible
Pressure 30.01 in
Visibility 10.0 miles
Clouds Mostly Cloudy 25000 ft
Dew Point 48 °F
Humidity 44%
Rainfall 0.00 in
Snow Depth Not available.
UV 0 out of 12
Pollen 3.30 out of 12
Ozone Good
PM2.5 Good
Flu Activity Local Activity
METAR KNPA 232156Z 21004KT 10SM BKN250 22/09 A3001 RMK AO2 SLP163 T02170089

More Conditions Fewer Conditions

Pressure 30.01 in
Visibility 10.0 miles
Clouds Mostly Cloudy 25000 ft
Dew Point 48 °F
Humidity 44%
Rainfall 0.00 in
Snow Depth Not available.
UV 0 out of 12
Pollen 3.30 out of 12
Ozone Good
PM2.5 Good
Flu Activity Local Activity
METAR KNPA 232156Z 21004KT 10SM BKN250 22/09 A3001 RMK AO2 SLP163 T02170089

More Conditions Fewer Conditions

10-Day Weather Forecast

Almanac

Astronomy

Oct. 23, 2014 Rise Set
Actual Time 6:56 AM CDT 6:09 PM CDT
Civil Twilight 6:32 AM CDT 6:34 PM CDT
Nautical Twilight 6:04 AM CDT 7:02 PM CDT
Astronomical Twilight 5:36 AM CDT 7:30 PM CDT
Moon 6:37 AM CDT 6:11 PM CDT
Length of Visible Light 12h 01m
Length of Day
11h 12m
Tomorrow will be 1m 42s shorter.
New Moon, 0% of the Moon is Illuminated
Today
New Moon
Oct 30
First Quarter
Nov 6
Full
Nov 14
Last Quarter
Nov 22
New

Today's Extremes

State Highs State Lows

Community

WunderPhotos

Upload Photos

1,764,387 photos uploaded!

WunderBlogs® & News

Nearby

Air Quality

  Air Quality AQ Index Pollutant
Yesterday Good
PM2.5
Yesterday Good
OZONE
Current Good
OZONE
Current Good
PM2.5
Thursday Good
OZONE
Thursday Good
PM2.5
Friday Good
OZONE
Friday Good
PM2.5

Snow Depth

Station Depth Elevation
No new snow has been reported.

Earthquake Activity

City Distance Mag. Time & Date
No recent earthquake activity has been reported nearby.
Minimum magnitude displayed is 2.5.

Coastal Water Temperatures

Place Temperature
No Stations Reporting

Nearby Weather Stations